CheckWX is a tool to help pilots better visualize weather data.  It is not intended as a substitute for an official pre-flight weather briefing.

04:18:17 UTC

EGGW METAR
London Luton Airport
London, United Kingdom
Current

28 mins ago

EGGW 270350Z AUTO 06011KT 9999 OVC008 11/09 Q1030
Observed
Jun-27 @ 03:50 UTC
Wind
  • 060° at 11 KTS
Visibility
10,000+ meters
Flight Rules
IFR
Cloud Levels
  • Overcast at 800' AGL
Temperature
11°C / 52°F
Dewpoint
C / 48°F
Humidity
88%
Altimeter
30.41" Hg
Pressure
1029.92 hPa
Previous

58 mins ago

EGGW 270320Z AUTO 05011KT 9999 OVC009 11/10 Q1030
Observed
Jun-27 @ 03:20 UTC
Wind
  • 050° at 11 KTS
Visibility
10,000+ meters
Flight Rules
IFR
Cloud Levels
  • Overcast at 900' AGL
Temperature
11°C / 52°F
Dewpoint
10°C / 50°F
Humidity
94%
Altimeter
30.41" Hg
Pressure
1029.92 hPa
Previous

1 hour ago

EGGW 270250Z AUTO 05010KT 9999 OVC009 11/10 Q1030
Observed
Jun-27 @ 02:50 UTC
Wind
  • 050° at 10 KTS
Visibility
10,000+ meters
Flight Rules
IFR
Cloud Levels
  • Overcast at 900' AGL
Temperature
11°C / 52°F
Dewpoint
10°C / 50°F
Humidity
94%
Altimeter
30.41" Hg
Pressure
1029.92 hPa